METAR Data
IDs: Format: Raw Decoded Include TAF

Data at: 0248 UTC 18 Jun 2019

PAKV 180153Z AUTO 24007KT 10SM CLR 14/11 A2963 RMK RAE07 SLP034 P0000 T01440111 TSNO $ VIA AUTODIAL
PAKV 180100Z AUTO 26007KT 8SM -RA OVC060 13/09 A2964 RMK P0000 T01280094 TSNO $ VIA AUTODIAL
PAKV 180053Z AUTO 28009G16KT 2 1/2SM RA OVC060 13/09 A2964 RMK SLP038 P0008 T01330089 TSNO $ VIA AUTODIAL
PAKV 172353Z AUTO VRB03KT 9SM -RA SCT070 OVC085 15/12 A2961 RMK RAB35 SLP030 P0003 60003 T01500117 10239 20150 53001 TSNO $ VIA AUTODIAL
PAKV 172253Z AUTO 03006KT 10SM BKN075 OVC090 22/08 A2959 RMK SLP021 T02220083 TSNO $ VIA AUTODIAL
PAKV 172153Z AUTO 03008KT 10SM BKN060 23/08 A2960 RMK SLP023 T02330083 TSNO $ VIA AUTODIAL
PAKV 172053Z AUTO 04008G15KT 10SM CLR 22/08 A2961 RMK SLP028 T02220078 58012 TSNO $ VIA AUTODIAL
PAKV 171953Z AUTO 06006KT 10SM CLR 21/08 A2963 RMK SLP035 T02060078 TSNO $ VIA AUTODIAL
PAKV 171853Z AUTO 32005KT 10SM CLR 18/05 A2964 RMK SLP037 T01830050 TSNO $ VIA AUTODIAL
PAKV 171753Z AUTO 00000KT 10SM CLR 17/09 A2965 RMK SLP040 T01720094 10194 20106 56015 TSNO $ VIA AUTODIAL
PAKV 171653Z AUTO 36003KT 10SM CLR 19/06 A2966 RMK SLP044 T01890061 TSNO $ VIA AUTODIAL
PAKV 171553Z AUTO 00000KT 10SM CLR 15/09 A2968 RMK SLP050 T01500089 TSNO $ VIA AUTODIAL
PAKV 171453Z AUTO 23003KT 10SM CLR 13/07 A2969 RMK SLP055 T01280072 56010 TSNO $ VIA AUTODIAL
PAKV 171353Z AUTO 00000KT 10SM CLR 12/07 A2970 RMK SLP057 T01220072 TSNO $ VIA AUTODIAL
PAKV 171253Z AUTO 00000KT 10SM CLR 13/06 A2971 RMK SLP061 T01280061 TSNO $ VIA AUTODIAL
PAKV 171153Z AUTO 00000KT 10SM CLR 12/07 A2972 RMK SLP065 T01170067 10228 20117 58002 TSNO $ VIA AUTODIAL
PAKV 171053Z AUTO 34006KT 10SM CLR 17/06 A2972 RMK SLP066 T01670061 TSNO $ VIA AUTODIAL
PAKV 170953Z AUTO 32003KT 10SM CLR 14/07 A2973 RMK SLP067 T01440072 TSNO $ VIA AUTODIAL
PAKV 170853Z AUTO 22003KT 10SM CLR 13/09 A2973 RMK SLP067 T01330089 402560094 53004 TSNO $ VIA AUTODIAL
PAKV 170753Z AUTO 00000KT 10SM CLR 18/08 A2972 RMK SLP065 T01780078 TSNO $ VIA AUTODIAL
PAKV 170653Z AUTO 04003KT 10SM CLR 21/09 A2972 RMK SLP064 T02060089 TSNO $ VIA AUTODIAL
PAKV 170553Z AUTO 04004KT 10SM CLR 23/08 A2972 RMK SLP064 T02280083 10256 20228 56004 TSNO $ VIA AUTODIAL
PAKV 170453Z AUTO 05006KT 10SM CLR 24/08 A2972 RMK SLP065 T02390078 TSNO $ VIA AUTODIAL
PAKV 170353Z AUTO 05006KT 10SM CLR 25/07 A2972 RMK SLP066 T02500072 TSNO $ VIA AUTODIAL
PAKV 170253Z AUTO 04007KT 10SM CLR 25/08 A2973 RMK SLP068 T02500078 56015 TSNO $ VIA AUTODIAL
PAKV 170153Z AUTO 04008KT 10SM FEW110 25/08 A2974 RMK SLP072 T02500078 TSNO $ VIA AUTODIAL
PAKV 170053Z AUTO 05006KT 10SM FEW100 25/08 A2976 RMK SLP079 T02500078 TSNO $ VIA AUTODIAL
PAKV 162353Z AUTO 05008KT 10SM FEW100 25/08 A2977 RMK SLP083 T02500078 10250 20194 56016 TSNO $ VIA AUTODIAL
PAKV 162253Z AUTO 05009KT 10SM CLR 24/08 A2978 RMK SLP087 T02390083 TSNO $ VIA AUTODIAL
PAKV 162153Z AUTO 05007KT 10SM BKN100 22/09 A2981 RMK SLP094 T02170089 TSNO $ VIA AUTODIAL
PAKV 162053Z AUTO 05007KT 10SM CLR 21/09 A2982 RMK SLP099 T02060094 58006 TSNO $ VIA AUTODIAL
PAKV 161953Z AUTO 05007KT 10SM CLR 21/10 A2983 RMK SLP102 T02060100 TSNO $ VIA AUTODIAL
PAKV 161853Z AUTO 05010KT 10SM CLR 20/10 A2984 RMK SLP104 T02000100 TSNO $ VIA AUTODIAL
PAKV 161753Z AUTO 04004KT 10SM FEW100 19/11 A2984 RMK SLP105 T01890111 10189 20094 58001 TSNO $ VIA AUTODIAL
PAKV 161653Z AUTO 00000KT 10SM FEW080 OVC100 16/11 A2984 RMK SLP106 T01560106 TSNO $ VIA AUTODIAL
PAKV 161553Z AUTO 00000KT 10SM OVC110 13/10 A2984 RMK SLP106 T01280100 TSNO $ VIA AUTODIAL
PAKV 161453Z AUTO 24003KT 10SM OVC100 12/09 A2984 RMK SLP107 T01170089 58003 TSNO $ VIA AUTODIAL